createdAt,value
2022-11-14T00:00:43.094Z,101512.59
2022-11-14T00:03:28.344Z,101501.44
2022-11-14T00:06:13.860Z,101497.16
2022-11-14T00:08:59.090Z,101503.59
2022-11-14T00:11:44.086Z,101511.25
2022-11-14T00:14:29.177Z,101509.09
2022-11-14T00:17:14.780Z,101506.00
2022-11-14T00:19:59.497Z,101502.25
2022-11-14T00:22:44.930Z,101505.25
2022-11-14T00:25:30.234Z,101501.50
2022-11-14T00:28:15.700Z,101498.00
2022-11-14T00:31:00.454Z,101490.56
2022-11-14T00:33:45.961Z,101491.59
2022-11-14T00:36:31.236Z,101475.97
2022-11-14T00:39:16.670Z,101476.84
2022-11-14T00:42:03.271Z,101478.25
2022-11-14T00:44:49.141Z,101483.50
2022-11-14T00:47:34.147Z,101467.25
2022-11-14T00:50:19.432Z,101468.91
2022-11-14T00:53:04.706Z,101467.25
2022-11-14T00:55:49.913Z,101466.56
2022-11-14T00:58:34.849Z,101460.59
2022-11-14T01:01:20.053Z,101455.41
2022-11-14T01:04:05.414Z,101461.03
2022-11-14T01:06:50.598Z,101446.50
2022-11-14T01:09:35.867Z,101453.59
2022-11-14T01:12:20.934Z,101454.81
2022-11-14T01:15:06.846Z,101458.03
2022-11-14T01:17:51.970Z,101456.38
2022-11-14T01:20:42.356Z,101459.28
2022-11-14T01:23:27.696Z,101447.59
2022-11-14T01:26:14.384Z,101445.72
2022-11-14T01:28:59.484Z,101444.53
2022-11-14T01:31:44.896Z,101452.34
2022-11-14T01:34:30.149Z,101440.31
2022-11-14T01:37:15.431Z,101439.31
2022-11-14T01:40:00.579Z,101433.31
2022-11-14T01:43:11.487Z,101433.97
2022-11-14T01:46:01.941Z,101433.91
2022-11-14T01:49:03.412Z,101425.88
2022-11-14T01:51:55.819Z,101422.88
2022-11-14T01:54:48.315Z,101412.69
2022-11-14T01:57:38.435Z,101408.50
2022-11-14T02:00:23.381Z,101411.81
2022-11-14T02:03:08.216Z,101408.34
2022-11-14T02:05:54.361Z,101399.72
2022-11-14T02:08:40.677Z,101393.22
2022-11-14T02:11:28.701Z,101393.59
2022-11-14T02:14:14.186Z,101381.78
2022-11-14T02:17:22.575Z,101384.91
2022-11-14T02:20:10.532Z,101386.25
2022-11-14T02:22:55.797Z,101381.22
2022-11-14T02:25:41.234Z,101380.94
2022-11-14T02:28:27.506Z,101378.97
2022-11-14T02:31:14.156Z,101384.06
2022-11-14T02:33:59.084Z,101369.47
2022-11-14T02:36:44.193Z,101374.66
2022-11-14T02:39:29.393Z,101368.59
2022-11-14T02:42:14.624Z,101372.25
2022-11-14T02:45:00.128Z,101368.59
2022-11-14T02:47:46.856Z,101365.03
2022-11-14T02:50:32.031Z,101363.94
2022-11-14T02:53:17.270Z,101361.91
2022-11-14T02:56:02.379Z,101363.78
2022-11-14T02:58:47.669Z,101358.75
2022-11-14T03:01:33.047Z,101362.13
2022-11-14T03:04:18.047Z,101347.69
2022-11-14T03:07:03.330Z,101350.16
2022-11-14T03:09:49.398Z,101355.78
2022-11-14T03:12:34.188Z,101341.69
2022-11-14T03:15:19.481Z,101343.41
2022-11-14T03:18:04.756Z,101345.94
2022-11-14T03:20:49.700Z,101335.53
2022-11-14T03:23:34.608Z,101331.00
2022-11-14T03:26:19.605Z,101332.31
2022-11-14T03:29:04.776Z,101328.22
2022-11-14T03:31:50.079Z,101318.63
2022-11-14T03:34:35.245Z,101322.59
2022-11-14T03:37:20.052Z,101307.31
2022-11-14T03:40:06.101Z,101311.66
2022-11-14T03:42:51.129Z,101311.78
2022-11-14T03:45:37.733Z,101313.22
2022-11-14T03:48:22.438Z,101303.03
2022-11-14T03:51:07.899Z,101311.56
2022-11-14T03:53:53.564Z,101311.72
2022-11-14T03:56:38.551Z,101307.69
2022-11-14T03:59:23.623Z,101303.63
2022-11-14T04:02:09.078Z,101301.78
2022-11-14T04:04:54.097Z,101302.53
2022-11-14T04:07:39.574Z,101297.22
2022-11-14T04:10:24.676Z,101288.00
2022-11-14T04:13:09.714Z,101285.69
2022-11-14T04:15:59.043Z,101281.84
2022-11-14T04:18:44.313Z,101275.13
2022-11-14T04:21:29.225Z,101267.03
2022-11-14T04:24:14.411Z,101269.53
2022-11-14T04:26:59.659Z,101274.63
2022-11-14T04:29:44.620Z,101274.47
2022-11-14T04:32:29.649Z,101278.63
2022-11-14T04:35:14.528Z,101276.31
2022-11-14T04:37:59.563Z,101280.59
2022-11-14T04:40:53.896Z,101264.03
2022-11-14T04:43:38.924Z,101272.81
2022-11-14T04:46:24.188Z,101277.09
2022-11-14T04:49:09.358Z,101273.25
2022-11-14T04:51:54.403Z,101286.06
2022-11-14T04:54:39.748Z,101276.53
2022-11-14T04:57:25.088Z,101273.84
2022-11-14T05:00:10.793Z,101281.34
2022-11-14T05:02:58.684Z,101264.06
2022-11-14T05:05:44.178Z,101253.94
2022-11-14T05:08:29.799Z,101261.44
2022-11-14T05:11:16.404Z,101261.94
2022-11-14T05:14:02.831Z,101249.06
2022-11-14T05:16:47.848Z,101241.28
2022-11-14T05:19:33.155Z,101237.63
2022-11-14T05:22:18.291Z,101232.84
2022-11-14T05:25:03.642Z,101227.72
2022-11-14T05:27:48.991Z,101227.66
2022-11-14T05:30:34.165Z,101228.81
2022-11-14T05:33:19.025Z,101233.44
2022-11-14T05:36:04.759Z,101220.88
2022-11-14T05:38:49.901Z,101224.91
2022-11-14T05:41:34.765Z,101225.88
2022-11-14T05:44:20.026Z,101228.81
2022-11-14T05:47:05.226Z,101224.91
2022-11-14T05:49:50.098Z,101230.72
2022-11-14T05:52:35.164Z,101221.41
2022-11-14T05:55:24.573Z,101221.41
2022-11-14T05:58:10.226Z,101227.44
2022-11-14T06:01:06.837Z,101228.81
2022-11-14T06:03:52.104Z,101224.91
2022-11-14T06:06:37.134Z,101227.88
2022-11-14T06:09:22.579Z,101228.41
2022-11-14T06:12:08.247Z,101225.56
2022-11-14T06:14:53.506Z,101227.31
2022-11-14T06:17:38.704Z,101231.50
2022-11-14T06:20:23.831Z,101224.31
2022-11-14T06:23:09.162Z,101231.72
2022-11-14T06:26:02.230Z,101231.88
2022-11-14T06:28:49.569Z,101229.31
2022-11-14T06:31:34.542Z,101225.34
2022-11-14T06:34:19.791Z,101232.25
2022-11-14T06:37:05.766Z,101227.97
2022-11-14T06:39:51.180Z,101219.97
2022-11-14T06:42:36.452Z,101221.41
2022-11-14T06:45:21.710Z,101223.56
2022-11-14T06:48:06.968Z,101218.09
2022-11-14T06:50:56.244Z,101220.72
2022-11-14T06:53:41.975Z,101219.72
2022-11-14T06:56:27.317Z,101213.53
2022-11-14T06:59:12.620Z,101211.88
2022-11-14T07:01:57.596Z,101213.31
2022-11-14T07:04:42.996Z,101207.09
2022-11-14T07:07:28.963Z,101206.19
2022-11-14T07:10:14.500Z,101207.22
2022-11-14T07:12:59.397Z,101218.63
2022-11-14T07:15:54.246Z,101210.53
2022-11-14T07:18:39.501Z,101198.78
2022-11-14T07:21:25.492Z,101205.09
2022-11-14T07:24:10.414Z,101202.47
2022-11-14T07:26:55.551Z,101203.94
2022-11-14T07:29:40.360Z,101209.19
2022-11-14T07:32:25.512Z,101210.84
2022-11-14T07:35:10.950Z,101202.69
2022-11-14T07:38:02.291Z,101203.78
2022-11-14T07:40:59.669Z,101204.16
2022-11-14T07:43:47.555Z,101195.66
2022-11-14T07:46:32.815Z,101192.00
2022-11-14T07:49:17.833Z,101199.31
2022-11-14T07:52:02.959Z,101204.72
2022-11-14T07:54:48.432Z,101200.28
2022-11-14T07:57:37.042Z,101196.31
2022-11-14T08:00:25.791Z,101201.78
2022-11-14T08:03:11.076Z,101204.00
2022-11-14T08:06:09.543Z,101205.97
2022-11-14T08:08:54.701Z,101201.47
2022-11-14T08:11:48.652Z,101202.97
2022-11-14T08:14:34.859Z,101193.78
2022-11-14T08:17:21.380Z,101190.75
2022-11-14T08:20:08.145Z,101185.22
2022-11-14T08:22:54.450Z,101186.75
2022-11-14T08:25:39.839Z,101189.28
2022-11-14T08:28:24.677Z,101191.75
2022-11-14T08:31:10.802Z,101199.88
2022-11-14T08:33:55.705Z,101203.03
2022-11-14T08:36:40.937Z,101201.91
2022-11-14T08:39:26.031Z,101192.47
2022-11-14T08:42:11.227Z,101207.44
2022-11-14T08:44:56.331Z,101209.28
2022-11-14T08:47:41.307Z,101208.94
2022-11-14T08:50:26.364Z,101204.97
2022-11-14T08:53:11.422Z,101205.94
2022-11-14T08:55:56.790Z,101196.84
2022-11-14T08:58:42.000Z,101216.88
2022-11-14T09:01:26.962Z,101209.28
2022-11-14T09:04:12.169Z,101212.28
2022-11-14T09:06:58.867Z,101201.59
2022-11-14T09:09:44.597Z,101198.44
2022-11-14T09:12:29.707Z,101204.22
2022-11-14T09:15:15.198Z,101196.03
2022-11-14T09:18:00.138Z,101195.97
2022-11-14T09:20:45.089Z,101200.09
2022-11-14T09:23:30.670Z,101201.97
2022-11-14T09:26:16.302Z,101209.28
2022-11-14T09:29:02.113Z,101199.84
2022-11-14T09:31:47.252Z,101201.66
2022-11-14T09:34:32.369Z,101194.69
2022-11-14T09:37:17.507Z,101184.53
2022-11-14T09:40:03.704Z,101181.72
2022-11-14T09:43:25.329Z,101187.53
2022-11-14T09:46:37.780Z,101179.66
2022-11-14T09:49:35.230Z,101181.75
2022-11-14T09:52:33.645Z,101178.50
2022-11-14T09:55:21.254Z,101164.44
2022-11-14T09:58:15.672Z,101168.06
2022-11-14T10:01:09.750Z,101171.59
2022-11-14T10:04:28.425Z,101155.78
2022-11-14T10:07:45.403Z,101144.19
2022-11-14T10:10:45.809Z,101138.81
2022-11-14T10:13:59.710Z,101127.63
2022-11-14T10:16:58.166Z,101113.91
2022-11-14T10:20:17.684Z,101116.97
2022-11-14T10:23:18.216Z,101125.44
2022-11-14T10:26:23.374Z,101117.34
2022-11-14T10:29:27.133Z,101112.88
2022-11-14T10:32:36.915Z,101102.41
2022-11-14T10:35:46.861Z,101100.78
2022-11-14T10:38:46.417Z,101096.88
2022-11-14T10:41:55.670Z,101088.44
2022-11-14T10:44:50.987Z,101085.50
2022-11-14T10:47:41.060Z,101108.19
2022-11-14T10:50:48.149Z,101089.88
2022-11-14T10:53:35.803Z,101086.09
2022-11-14T10:56:21.462Z,101079.06
2022-11-14T10:59:08.854Z,101097.84
2022-11-14T11:01:56.336Z,101093.84
2022-11-14T11:04:43.315Z,101118.38
2022-11-14T11:07:54.734Z,101095.94
2022-11-14T11:11:03.935Z,101096.63
2022-11-14T11:13:55.787Z,101097.38
2022-11-14T11:16:40.961Z,101096.88
2022-11-14T11:19:27.228Z,101095.00
2022-11-14T11:22:36.217Z,101087.59
2022-11-14T11:25:30.382Z,101070.47
2022-11-14T11:28:20.756Z,101085.13
2022-11-14T11:31:11.153Z,101082.25
2022-11-14T11:34:02.663Z,101081.94
2022-11-14T11:36:55.822Z,101077.84
2022-11-14T11:39:48.056Z,101073.34
2022-11-14T11:43:37.248Z,101066.97
2022-11-14T11:46:42.761Z,101066.72
2022-11-14T11:49:30.475Z,101064.00
2022-11-14T11:52:34.161Z,101060.03
2022-11-14T11:55:25.477Z,101055.56
2022-11-14T11:58:41.115Z,101053.44
2022-11-14T12:01:26.452Z,101045.25
2022-11-14T12:04:11.393Z,101046.22
2022-11-14T12:07:12.507Z,101046.47
2022-11-14T12:10:10.859Z,101028.47
2022-11-14T12:13:33.619Z,101026.91
2022-11-14T12:16:58.240Z,101036.50
2022-11-14T12:20:29.910Z,101034.69
2022-11-14T12:23:58.404Z,101025.19
2022-11-14T12:26:52.082Z,101038.47
2022-11-14T12:29:51.933Z,101037.47
2022-11-14T12:32:42.367Z,101037.53
2022-11-14T12:35:35.838Z,101037.88
2022-11-14T12:38:22.617Z,101043.59
2022-11-14T12:41:08.685Z,101028.84
2022-11-14T12:43:55.985Z,101033.28
2022-11-14T12:47:13.609Z,101031.16
2022-11-14T12:50:00.657Z,101024.56
2022-11-14T12:52:48.907Z,101020.88
2022-11-14T12:55:43.873Z,101014.69
2022-11-14T12:58:36.210Z,101016.09
2022-11-14T13:01:30.480Z,101006.72
2022-11-14T13:04:32.549Z,101006.03
2022-11-14T13:07:34.500Z,101003.06
2022-11-14T13:10:31.628Z,101002.69
2022-11-14T13:13:36.485Z,100990.59
2022-11-14T13:16:48.423Z,100988.84
2022-11-14T13:19:52.011Z,100985.13
2022-11-14T13:22:45.457Z,100982.56
2022-11-14T13:25:30.997Z,100975.34
2022-11-14T13:28:37.891Z,100962.72
2022-11-14T13:31:45.879Z,100967.28
2022-11-14T13:34:38.504Z,100971.19
2022-11-14T13:38:00.741Z,100967.94
2022-11-14T13:40:51.705Z,100957.34
2022-11-14T13:44:01.415Z,100960.44
2022-11-14T13:47:08.261Z,100958.75
2022-11-14T13:49:59.279Z,100949.31
2022-11-14T13:52:48.862Z,100956.06
2022-11-14T13:55:58.841Z,100952.22
2022-11-14T13:58:56.305Z,100957.84
2022-11-14T14:01:54.593Z,100951.34
2022-11-14T14:05:00.990Z,100953.78
2022-11-14T14:08:00.809Z,100952.56
2022-11-14T14:11:00.718Z,100947.09
2022-11-14T14:13:57.667Z,100944.06
2022-11-14T14:16:58.710Z,100943.13
2022-11-14T14:20:00.084Z,100933.16
2022-11-14T14:23:16.862Z,100939.47
2022-11-14T14:26:34.639Z,100934.81
2022-11-14T14:29:45.956Z,100937.78
2022-11-14T14:32:30.950Z,100938.97
2022-11-14T14:35:39.077Z,100935.00
2022-11-14T14:38:28.291Z,100935.56
2022-11-14T14:41:18.043Z,100933.38
2022-11-14T14:44:03.029Z,100924.88
2022-11-14T14:46:48.239Z,100916.63
2022-11-14T14:49:37.677Z,100919.47
2022-11-14T14:52:30.728Z,100907.06
2022-11-14T14:55:30.420Z,100898.44
2022-11-14T14:58:21.992Z,100893.88
2022-11-14T15:01:15.886Z,100887.25
2022-11-14T15:04:06.693Z,100900.50
2022-11-14T15:06:53.470Z,100890.44
2022-11-14T15:09:38.776Z,100881.56
2022-11-14T15:12:26.065Z,100881.75
2022-11-14T15:15:16.682Z,100873.22
2022-11-14T15:18:07.398Z,100869.28
2022-11-14T15:21:14.066Z,100875.13
2022-11-14T15:24:18.601Z,100872.59
2022-11-14T15:27:10.136Z,100881.03
2022-11-14T15:30:00.689Z,100871.06
2022-11-14T15:32:57.321Z,100876.72
2022-11-14T15:35:42.738Z,100877.22
2022-11-14T15:38:44.669Z,100869.50
2022-11-14T15:41:33.855Z,100870.66
2022-11-14T15:44:34.619Z,100857.81
2022-11-14T15:47:29.013Z,100865.84
2022-11-14T15:50:13.770Z,100859.88
2022-11-14T15:53:01.969Z,100864.41
2022-11-14T15:55:47.325Z,100858.06
2022-11-14T15:58:32.979Z,100856.69
2022-11-14T16:01:23.759Z,100863.47
2022-11-14T16:04:14.348Z,100875.03
2022-11-14T16:06:59.242Z,100875.78
2022-11-14T16:09:45.148Z,100860.38
2022-11-14T16:12:30.261Z,100877.91
2022-11-14T16:15:16.561Z,100870.13
2022-11-14T16:18:04.594Z,100868.97
2022-11-14T16:20:51.376Z,100869.47
2022-11-14T16:23:36.609Z,100868.16
2022-11-14T16:26:21.863Z,100863.72
2022-11-14T16:29:08.884Z,100858.91
2022-11-14T16:31:55.151Z,100857.25
2022-11-14T16:34:40.298Z,100851.53
2022-11-14T16:37:25.599Z,100846.78
2022-11-14T16:40:21.436Z,100840.75
2022-11-14T16:43:06.575Z,100841.06
2022-11-14T16:45:51.426Z,100839.66
2022-11-14T16:48:36.411Z,100847.50
2022-11-14T16:51:47.047Z,100839.50
2022-11-14T16:54:26.449Z,100843.75
2022-11-14T16:57:12.023Z,100839.16
2022-11-14T16:59:58.084Z,100836.22
2022-11-14T17:02:44.020Z,100833.44
2022-11-14T17:05:28.977Z,100842.84
2022-11-14T17:08:15.728Z,100831.78
2022-11-14T17:11:00.925Z,100837.28
2022-11-14T17:13:46.641Z,100829.00
2022-11-14T17:16:31.833Z,100834.34
2022-11-14T17:19:16.778Z,100844.41
2022-11-14T17:22:01.826Z,100839.81
2022-11-14T17:24:47.121Z,100850.63
2022-11-14T17:27:32.170Z,100841.28
2022-11-14T17:30:18.360Z,100827.88
2022-11-14T17:33:03.183Z,100828.44
2022-11-14T17:35:48.513Z,100832.50
2022-11-14T17:38:35.217Z,100830.31
2022-11-14T17:41:20.656Z,100819.84
2022-11-14T17:44:05.498Z,100822.72
2022-11-14T17:46:50.588Z,100818.28
2022-11-14T17:49:35.635Z,100822.03
2022-11-14T17:52:21.440Z,100811.78
2022-11-14T17:55:07.326Z,100817.50
2022-11-14T17:57:52.382Z,100825.75
2022-11-14T18:00:37.514Z,100818.50
2022-11-14T18:03:22.647Z,100816.72
2022-11-14T18:06:09.890Z,100817.72
2022-11-14T18:08:54.833Z,100819.56
2022-11-14T18:11:39.844Z,100819.63
2022-11-14T18:14:25.058Z,100825.94
2022-11-14T18:17:13.142Z,100819.91
2022-11-14T18:20:01.512Z,100815.88
2022-11-14T18:22:46.541Z,100810.38
2022-11-14T18:25:31.708Z,100811.09
2022-11-14T18:28:17.061Z,100807.38
2022-11-14T18:31:04.489Z,100796.75
2022-11-14T18:33:50.348Z,100792.16
2022-11-14T18:36:35.286Z,100784.22
2022-11-14T18:39:20.586Z,100776.28
2022-11-14T18:42:05.903Z,100793.25
2022-11-14T18:44:51.192Z,100794.19
2022-11-14T18:47:36.589Z,100780.19
2022-11-14T18:50:21.806Z,100784.00
2022-11-14T18:53:07.137Z,100781.69
2022-11-14T18:55:53.200Z,100772.22
2022-11-14T18:58:41.932Z,100767.63
2022-11-14T19:01:30.050Z,100759.88
2022-11-14T19:04:17.334Z,100753.75
2022-11-14T19:07:02.633Z,100759.72
2022-11-14T19:09:48.341Z,100761.03
2022-11-14T19:12:33.681Z,100754.09
2022-11-14T19:15:18.686Z,100748.84
2022-11-14T19:18:03.888Z,100748.53
2022-11-14T19:20:57.233Z,100741.22
2022-11-14T19:23:42.126Z,100735.84
2022-11-14T19:26:28.160Z,100733.84
2022-11-14T19:29:13.781Z,100734.22
2022-11-14T19:31:59.126Z,100729.41
2022-11-14T19:34:45.331Z,100727.66
2022-11-14T19:37:30.384Z,100724.47
2022-11-14T19:40:15.444Z,100726.03
2022-11-14T19:43:03.937Z,100711.94
2022-11-14T19:45:48.947Z,100706.00
2022-11-14T19:48:35.385Z,100705.84
2022-11-14T19:51:22.289Z,100702.00
2022-11-14T19:54:09.948Z,100697.44
2022-11-14T19:56:55.348Z,100699.31
2022-11-14T19:59:40.298Z,100702.09
2022-11-14T20:02:25.803Z,100710.75
2022-11-14T20:05:11.539Z,100702.91
2022-11-14T20:07:56.608Z,100706.25
2022-11-14T20:10:47.585Z,100704.78
2022-11-14T20:13:35.475Z,100706.84
2022-11-14T20:16:23.372Z,100707.34
2022-11-14T20:19:08.750Z,100697.28
2022-11-14T20:21:53.881Z,100694.09
2022-11-14T20:24:39.085Z,100695.44
2022-11-14T20:27:24.146Z,100699.19
2022-11-14T20:30:09.761Z,100691.72
2022-11-14T20:32:54.814Z,100686.94
2022-11-14T20:35:40.084Z,100691.53
2022-11-14T20:38:25.181Z,100694.00
2022-11-14T20:41:12.305Z,100690.56
2022-11-14T20:43:57.560Z,100682.66
2022-11-14T20:46:42.907Z,100687.31
2022-11-14T20:49:28.117Z,100672.72
2022-11-14T20:52:16.344Z,100673.56
2022-11-14T20:55:05.172Z,100670.69
2022-11-14T20:57:54.040Z,100671.31
2022-11-14T21:00:39.189Z,100665.38
2022-11-14T21:03:24.009Z,100656.31
2022-11-14T21:06:11.604Z,100664.75
2022-11-14T21:08:56.356Z,100663.47
2022-11-14T21:11:41.402Z,100660.53
2022-11-14T21:14:26.916Z,100661.63
2022-11-14T21:17:11.634Z,100658.06
2022-11-14T21:19:56.542Z,100643.75
2022-11-14T21:22:41.561Z,100643.25
2022-11-14T21:25:26.922Z,100642.00
2022-11-14T21:28:11.908Z,100647.16
2022-11-14T21:30:58.571Z,100649.03
2022-11-14T21:33:44.623Z,100652.19
2022-11-14T21:36:44.536Z,100649.50
2022-11-14T21:39:31.012Z,100655.00
2022-11-14T21:42:18.602Z,100649.53
2022-11-14T21:45:05.406Z,100648.47
2022-11-14T21:47:50.753Z,100652.94
2022-11-14T21:50:35.659Z,100651.72
2022-11-14T21:53:20.848Z,100636.66
2022-11-14T21:56:19.660Z,100647.84
2022-11-14T21:59:16.068Z,100642.25
2022-11-14T22:02:20.420Z,100637.19
2022-11-14T22:05:06.387Z,100647.06
2022-11-14T22:07:51.475Z,100644.06
2022-11-14T22:10:36.643Z,100649.84
2022-11-14T22:13:21.860Z,100643.69
2022-11-14T22:16:08.765Z,100640.03
2022-11-14T22:18:58.052Z,100646.91
2022-11-14T22:21:46.844Z,100645.53
2022-11-14T22:24:31.986Z,100641.44
2022-11-14T22:27:17.181Z,100643.69
2022-11-14T22:30:02.395Z,100654.69
2022-11-14T22:32:47.342Z,100657.16
2022-11-14T22:35:35.233Z,100661.16
2022-11-14T22:38:20.709Z,100656.84
2022-11-14T22:41:09.624Z,100654.06
2022-11-14T22:43:55.798Z,100648.53
2022-11-14T22:46:40.990Z,100653.81
2022-11-14T22:49:25.851Z,100651.63
2022-11-14T22:52:11.121Z,100654.19
2022-11-14T22:54:56.128Z,100650.59
2022-11-14T22:57:41.389Z,100652.13
2022-11-14T23:00:26.557Z,100656.00
2022-11-14T23:04:02.474Z,100652.59
2022-11-14T23:06:52.833Z,100661.88
2022-11-14T23:09:37.996Z,100666.91
2022-11-14T23:12:23.360Z,100662.59
2022-11-14T23:15:09.704Z,100660.56
2022-11-14T23:17:55.283Z,100655.09
2022-11-14T23:20:46.889Z,100654.66
2022-11-14T23:23:32.975Z,100651.38
2022-11-14T23:26:26.609Z,100649.63
2022-11-14T23:29:14.185Z,100649.84
2022-11-14T23:31:59.622Z,100640.44
2022-11-14T23:34:44.763Z,100654.00
2022-11-14T23:37:29.703Z,100643.06
2022-11-14T23:40:15.175Z,100650.00
2022-11-14T23:43:00.585Z,100656.94
2022-11-14T23:45:48.220Z,100654.75
2022-11-14T23:48:33.409Z,100662.28
2022-11-14T23:51:18.390Z,100661.13
2022-11-14T23:54:03.474Z,100657.19
2022-11-14T23:56:48.445Z,100653.00
2022-11-14T23:59:33.636Z,100644.09
